Pinetown, South Africa
Current Conditions -  °F | °C
As of 1:00 AM on Tuesday 21 Oct 2014 (Local Time) from FALE Reporting Station
Light Rain Light Rain  
Wind Chill: 63°   Ceiling: 2400
Heat Index: 63°   Visibility: 3mi
Dew Point: 59°   Wind: 6mph
Humidity: 88%   Direction: 310°NW
Pressure: 30.21"   Gusts: NA
Location:  29.76°S, 30.83°E
Report Text: FALE 202300Z 31005KT 5000 -RA SCT008 OVC024 17/15 Q1023 NOSIG
Loading
Personal Weather Stations






























Interactive Weather Map
Tropical Storm Tracking
New forecast layout! Learn more

10-Day Weather Forecast

Advertisements
Track Severe Weather on mobile